sensor_id;sensor_type;location;lat;lon;timestamp;P1;P2;P0
79537;PMS5003;68989;52.032;5.152;2023-04-07T00:01:21;10;10;
79537;PMS5003;68989;52.032;5.152;2023-04-07T00:03:48;7;7;
79537;PMS5003;68989;52.032;5.152;2023-04-07T00:06:15;7;7;
79537;PMS5003;68989;52.032;5.152;2023-04-07T00:08:42;9;9;
79537;PMS5003;68989;52.032;5.152;2023-04-07T00:11:09;7;7;
79537;PMS5003;68989;52.032;5.152;2023-04-07T00:13:36;6;6;
79537;PMS5003;68989;52.032;5.152;2023-04-07T00:16:02;9;7;
79537;PMS5003;68989;52.032;5.152;2023-04-07T00:18:29;8;8;
79537;PMS5003;68989;52.032;5.152;2023-04-07T00:20:56;9;9;
79537;PMS5003;68989;52.032;5.152;2023-04-07T00:23:23;7;7;
79537;PMS5003;68989;52.032;5.152;2023-04-07T00:25:50;9;7;
79537;PMS5003;68989;52.032;5.152;2023-04-07T00:28:17;8;7;
79537;PMS5003;68989;52.032;5.152;2023-04-07T00:30:44;8;8;
79537;PMS5003;68989;52.032;5.152;2023-04-07T00:33:11;10;10;
79537;PMS5003;68989;52.032;5.152;2023-04-07T00:35:38;9;9;
79537;PMS5003;68989;52.032;5.152;2023-04-07T00:38:05;9;8;
79537;PMS5003;68989;52.032;5.152;2023-04-07T00:40:32;9;8;
79537;PMS5003;68989;52.032;5.152;2023-04-07T00:43:00;9;8;
79537;PMS5003;68989;52.032;5.152;2023-04-07T00:45:27;7;7;
79537;PMS5003;68989;52.032;5.152;2023-04-07T00:47:55;8;8;
79537;PMS5003;68989;52.032;5.152;2023-04-07T00:50:22;7;7;
79537;PMS5003;68989;52.032;5.152;2023-04-07T00:52:49;10;10;
79537;PMS5003;68989;52.032;5.152;2023-04-07T00:55:16;7;6;
79537;PMS5003;68989;52.032;5.152;2023-04-07T00:57:43;10;9;
79537;PMS5003;68989;52.032;5.152;2023-04-07T01:00:10;9;8;
79537;PMS5003;68989;52.032;5.152;2023-04-07T01:02:40;7;7;
79537;PMS5003;68989;52.032;5.152;2023-04-07T01:05:12;9;9;
79537;PMS5003;68989;52.032;5.152;2023-04-07T01:07:46;9;7;
79537;PMS5003;68989;52.032;5.152;2023-04-07T01:10:23;9;8;
79537;PMS5003;68989;52.032;5.152;2023-04-07T01:13:00;11;10;
79537;PMS5003;68989;52.032;5.152;2023-04-07T01:15:35;6;6;
79537;PMS5003;68989;52.032;5.152;2023-04-07T01:18:07;8;8;
79537;PMS5003;68989;52.032;5.152;2023-04-07T01:20:38;11;8;
79537;PMS5003;68989;52.032;5.152;2023-04-07T01:23:08;11;9;
79537;PMS5003;68989;52.032;5.152;2023-04-07T01:25:52;12;9;
79537;PMS5003;68989;52.032;5.152;2023-04-07T01:28:33;13;9;
79537;PMS5003;68989;52.032;5.152;2023-04-07T01:31:11;10;10;
79537;PMS5003;68989;52.032;5.152;2023-04-07T01:33:40;13;9;
79537;PMS5003;68989;52.032;5.152;2023-04-07T01:36:11;13;10;
79537;PMS5003;68989;52.032;5.152;2023-04-07T01:38:41;16;12;
79537;PMS5003;68989;52.032;5.152;2023-04-07T01:41:10;10;10;
79537;PMS5003;68989;52.032;5.152;2023-04-07T01:43:40;13;9;
79537;PMS5003;68989;52.032;5.152;2023-04-07T01:46:08;10;8;
79537;PMS5003;68989;52.032;5.152;2023-04-07T01:48:35;10;10;
79537;PMS5003;68989;52.032;5.152;2023-04-07T01:51:05;9;9;
79537;PMS5003;68989;52.032;5.152;2023-04-07T01:53:32;13;11;
79537;PMS5003;68989;52.032;5.152;2023-04-07T01:56:00;8;8;
79537;PMS5003;68989;52.032;5.152;2023-04-07T01:58:27;10;10;
79537;PMS5003;68989;52.032;5.152;2023-04-07T02:00:54;13;9;
79537;PMS5003;68989;52.032;5.152;2023-04-07T02:03:22;11;9;
79537;PMS5003;68989;52.032;5.152;2023-04-07T02:05:54;9;9;
79537;PMS5003;68989;52.032;5.152;2023-04-07T02:08:26;11;9;
79537;PMS5003;68989;52.032;5.152;2023-04-07T02:10:54;11;10;
79537;PMS5003;68989;52.032;5.152;2023-04-07T02:13:23;10;10;
79537;PMS5003;68989;52.032;5.152;2023-04-07T02:15:50;8;8;
79537;PMS5003;68989;52.032;5.152;2023-04-07T02:18:20;17;11;
79537;PMS5003;68989;52.032;5.152;2023-04-07T02:20:48;8;7;
79537;PMS5003;68989;52.032;5.152;2023-04-07T02:23:17;10;9;
79537;PMS5003;68989;52.032;5.152;2023-04-07T02:25:44;10;10;
79537;PMS5003;68989;52.032;5.152;2023-04-07T02:28:11;9;9;
79537;PMS5003;68989;52.032;5.152;2023-04-07T02:30:38;10;8;
79537;PMS5003;68989;52.032;5.152;2023-04-07T02:33:05;9;6;
79537;PMS5003;68989;52.032;5.152;2023-04-07T02:35:32;12;10;
79537;PMS5003;68989;52.032;5.152;2023-04-07T02:38:00;10;6;
79537;PMS5003;68989;52.032;5.152;2023-04-07T02:40:27;9;9;
79537;PMS5003;68989;52.032;5.152;2023-04-07T02:42:54;9;9;
79537;PMS5003;68989;52.032;5.152;2023-04-07T02:45:21;11;9;
79537;PMS5003;68989;52.032;5.152;2023-04-07T02:47:48;11;9;
79537;PMS5003;68989;52.032;5.152;2023-04-07T02:50:15;12;11;
79537;PMS5003;68989;52.032;5.152;2023-04-07T02:52:42;10;8;
79537;PMS5003;68989;52.032;5.152;2023-04-07T02:55:09;7;7;
79537;PMS5003;68989;52.032;5.152;2023-04-07T02:57:36;5;5;
79537;PMS5003;68989;52.032;5.152;2023-04-07T03:00:03;6;4;
79537;PMS5003;68989;52.032;5.152;2023-04-07T03:02:31;10;10;
79537;PMS5003;68989;52.032;5.152;2023-04-07T03:04:58;11;7;
79537;PMS5003;68989;52.032;5.152;2023-04-07T03:07:25;8;7;
79537;PMS5003;68989;52.032;5.152;2023-04-07T03:09:52;11;9;
79537;PMS5003;68989;52.032;5.152;2023-04-07T03:12:20;9;6;
79537;PMS5003;68989;52.032;5.152;2023-04-07T03:14:46;8;7;
79537;PMS5003;68989;52.032;5.152;2023-04-07T03:17:14;8;7;
79537;PMS5003;68989;52.032;5.152;2023-04-07T03:19:41;8;8;
79537;PMS5003;68989;52.032;5.152;2023-04-07T03:22:08;6;6;
79537;PMS5003;68989;52.032;5.152;2023-04-07T03:24:35;7;6;
79537;PMS5003;68989;52.032;5.152;2023-04-07T03:27:01;7;6;
79537;PMS5003;68989;52.032;5.152;2023-04-07T03:29:28;5;5;
79537;PMS5003;68989;52.032;5.152;2023-04-07T03:31:55;6;5;
79537;PMS5003;68989;52.032;5.152;2023-04-07T03:34:23;8;6;
79537;PMS5003;68989;52.032;5.152;2023-04-07T03:36:49;8;8;
79537;PMS5003;68989;52.032;5.152;2023-04-07T03:39:16;10;7;
79537;PMS5003;68989;52.032;5.152;2023-04-07T03:41:43;7;7;
79537;PMS5003;68989;52.032;5.152;2023-04-07T03:44:10;11;8;
79537;PMS5003;68989;52.032;5.152;2023-04-07T03:46:37;9;8;
79537;PMS5003;68989;52.032;5.152;2023-04-07T03:49:04;9;9;
79537;PMS5003;68989;52.032;5.152;2023-04-07T03:51:31;10;8;
79537;PMS5003;68989;52.032;5.152;2023-04-07T03:53:58;6;6;
79537;PMS5003;68989;52.032;5.152;2023-04-07T03:56:25;6;6;
79537;PMS5003;68989;52.032;5.152;2023-04-07T03:58:52;6;6;
79537;PMS5003;68989;52.032;5.152;2023-04-07T04:01:20;11;8;
79537;PMS5003;68989;52.032;5.152;2023-04-07T04:03:48;7;7;
79537;PMS5003;68989;52.032;5.152;2023-04-07T04:06:15;6;6;
79537;PMS5003;68989;52.032;5.152;2023-04-07T04:08:42;7;5;
79537;PMS5003;68989;52.032;5.152;2023-04-07T04:11:09;9;9;
79537;PMS5003;68989;52.032;5.152;2023-04-07T04:13:36;5;5;
79537;PMS5003;68989;52.032;5.152;2023-04-07T04:16:03;8;8;
79537;PMS5003;68989;52.032;5.152;2023-04-07T04:18:30;8;7;
79537;PMS5003;68989;52.032;5.152;2023-04-07T04:20:57;8;8;
79537;PMS5003;68989;52.032;5.152;2023-04-07T04:23:24;8;8;
79537;PMS5003;68989;52.032;5.152;2023-04-07T04:25:51;5;5;
79537;PMS5003;68989;52.032;5.152;2023-04-07T04:28:18;7;6;
79537;PMS5003;68989;52.032;5.152;2023-04-07T04:30:45;8;8;
79537;PMS5003;68989;52.032;5.152;2023-04-07T04:33:11;10;9;
79537;PMS5003;68989;52.032;5.152;2023-04-07T04:35:38;10;10;
79537;PMS5003;68989;52.032;5.152;2023-04-07T04:38:05;7;7;
79537;PMS5003;68989;52.032;5.152;2023-04-07T04:40:32;12;10;
79537;PMS5003;68989;52.032;5.152;2023-04-07T04:42:59;9;9;
79537;PMS5003;68989;52.032;5.152;2023-04-07T04:45:26;11;10;
79537;PMS5003;68989;52.032;5.152;2023-04-07T04:47:53;9;9;
79537;PMS5003;68989;52.032;5.152;2023-04-07T04:50:19;12;11;
79537;PMS5003;68989;52.032;5.152;2023-04-07T04:52:46;10;9;
79537;PMS5003;68989;52.032;5.152;2023-04-07T04:55:13;9;9;
79537;PMS5003;68989;52.032;5.152;2023-04-07T04:57:40;11;10;
79537;PMS5003;68989;52.032;5.152;2023-04-07T05:00:07;11;10;
79537;PMS5003;68989;52.032;5.152;2023-04-07T05:02:35;11;10;
79537;PMS5003;68989;52.032;5.152;2023-04-07T05:05:03;10;10;
79537;PMS5003;68989;52.032;5.152;2023-04-07T05:07:30;7;7;
79537;PMS5003;68989;52.032;5.152;2023-04-07T05:09:58;11;11;
79537;PMS5003;68989;52.032;5.152;2023-04-07T05:12:25;12;10;
79537;PMS5003;68989;52.032;5.152;2023-04-07T05:14:52;9;7;
79537;PMS5003;68989;52.032;5.152;2023-04-07T05:17:19;12;9;
79537;PMS5003;68989;52.032;5.152;2023-04-07T05:19:46;13;10;
79537;PMS5003;68989;52.032;5.152;2023-04-07T05:22:13;11;9;
79537;PMS5003;68989;52.032;5.152;2023-04-07T05:24:40;13;12;
79537;PMS5003;68989;52.032;5.152;2023-04-07T05:27:07;11;11;
79537;PMS5003;68989;52.032;5.152;2023-04-07T05:29:34;15;12;
79537;PMS5003;68989;52.032;5.152;2023-04-07T05:32:03;10;10;
79537;PMS5003;68989;52.032;5.152;2023-04-07T05:34:31;10;10;
79537;PMS5003;68989;52.032;5.152;2023-04-07T05:36:57;13;10;
79537;PMS5003;68989;52.032;5.152;2023-04-07T05:39:25;13;12;
79537;PMS5003;68989;52.032;5.152;2023-04-07T05:41:51;12;11;
79537;PMS5003;68989;52.032;5.152;2023-04-07T05:44:18;12;9;
79537;PMS5003;68989;52.032;5.152;2023-04-07T05:46:45;11;10;
79537;PMS5003;68989;52.032;5.152;2023-04-07T05:49:11;13;11;
79537;PMS5003;68989;52.032;5.152;2023-04-07T05:51:39;9;9;
79537;PMS5003;68989;52.032;5.152;2023-04-07T05:54:06;10;10;
79537;PMS5003;68989;52.032;5.152;2023-04-07T05:56:33;14;10;
79537;PMS5003;68989;52.032;5.152;2023-04-07T05:59:00;12;10;
79537;PMS5003;68989;52.032;5.152;2023-04-07T06:01:27;13;11;
79537;PMS5003;68989;52.032;5.152;2023-04-07T06:03:55;10;9;
79537;PMS5003;68989;52.032;5.152;2023-04-07T06:06:22;9;9;
79537;PMS5003;68989;52.032;5.152;2023-04-07T06:08:49;11;9;
79537;PMS5003;68989;52.032;5.152;2023-04-07T06:11:17;9;9;
79537;PMS5003;68989;52.032;5.152;2023-04-07T06:13:43;12;10;
79537;PMS5003;68989;52.032;5.152;2023-04-07T06:16:11;13;9;
79537;PMS5003;68989;52.032;5.152;2023-04-07T06:18:37;8;8;
79537;PMS5003;68989;52.032;5.152;2023-04-07T06:21:04;6;6;
79537;PMS5003;68989;52.032;5.152;2023-04-07T06:23:31;9;8;
79537;PMS5003;68989;52.032;5.152;2023-04-07T06:25:58;10;10;
79537;PMS5003;68989;52.032;5.152;2023-04-07T06:28:26;8;8;
79537;PMS5003;68989;52.032;5.152;2023-04-07T06:30:54;10;8;
79537;PMS5003;68989;52.032;5.152;2023-04-07T06:33:20;8;8;
79537;PMS5003;68989;52.032;5.152;2023-04-07T06:35:48;8;8;
79537;PMS5003;68989;52.032;5.152;2023-04-07T06:38:14;8;8;
79537;PMS5003;68989;52.032;5.152;2023-04-07T06:40:41;9;9;
79537;PMS5003;68989;52.032;5.152;2023-04-07T06:43:09;6;6;
79537;PMS5003;68989;52.032;5.152;2023-04-07T06:45:36;9;9;
79537;PMS5003;68989;52.032;5.152;2023-04-07T06:48:03;7;7;
79537;PMS5003;68989;52.032;5.152;2023-04-07T06:50:30;9;8;
79537;PMS5003;68989;52.032;5.152;2023-04-07T06:52:57;8;8;
79537;PMS5003;68989;52.032;5.152;2023-04-07T06:55:24;6;6;
79537;PMS5003;68989;52.032;5.152;2023-04-07T06:57:51;5;5;
79537;PMS5003;68989;52.032;5.152;2023-04-07T07:00:19;10;8;
79537;PMS5003;68989;52.032;5.152;2023-04-07T07:02:46;7;7;
79537;PMS5003;68989;52.032;5.152;2023-04-07T07:05:13;5;4;
79537;PMS5003;68989;52.032;5.152;2023-04-07T07:07:40;9;7;
79537;PMS5003;68989;52.032;5.152;2023-04-07T07:10:08;4;4;
79537;PMS5003;68989;52.032;5.152;2023-04-07T07:12:35;6;6;
79537;PMS5003;68989;52.032;5.152;2023-04-07T07:15:02;6;6;
79537;PMS5003;68989;52.032;5.152;2023-04-07T07:17:30;8;8;
79537;PMS5003;68989;52.032;5.152;2023-04-07T07:19:57;10;7;
79537;PMS5003;68989;52.032;5.152;2023-04-07T07:22:24;5;5;
79537;PMS5003;68989;52.032;5.152;2023-04-07T07:24:51;6;6;
79537;PMS5003;68989;52.032;5.152;2023-04-07T07:27:18;6;6;
79537;PMS5003;68989;52.032;5.152;2023-04-07T07:29:45;6;6;
79537;PMS5003;68989;52.032;5.152;2023-04-07T07:32:12;8;6;
79537;PMS5003;68989;52.032;5.152;2023-04-07T07:34:39;8;7;
79537;PMS5003;68989;52.032;5.152;2023-04-07T07:37:06;7;7;
79537;PMS5003;68989;52.032;5.152;2023-04-07T07:39:34;8;7;
79537;PMS5003;68989;52.032;5.152;2023-04-07T07:42:01;7;5;
79537;PMS5003;68989;52.032;5.152;2023-04-07T07:44:28;7;7;
79537;PMS5003;68989;52.032;5.152;2023-04-07T07:46:55;7;6;
79537;PMS5003;68989;52.032;5.152;2023-04-07T07:49:22;6;5;
79537;PMS5003;68989;52.032;5.152;2023-04-07T07:51:49;5;5;
79537;PMS5003;68989;52.032;5.152;2023-04-07T07:54:15;9;8;
79537;PMS5003;68989;52.032;5.152;2023-04-07T07:56:42;5;5;
79537;PMS5003;68989;52.032;5.152;2023-04-07T07:59:09;9;4;
79537;PMS5003;68989;52.032;5.152;2023-04-07T08:01:36;7;7;
79537;PMS5003;68989;52.032;5.152;2023-04-07T08:04:03;10;8;
79537;PMS5003;68989;52.032;5.152;2023-04-07T08:06:30;6;5;
79537;PMS5003;68989;52.032;5.152;2023-04-07T08:08:57;6;5;
79537;PMS5003;68989;52.032;5.152;2023-04-07T08:11:24;6;6;
79537;PMS5003;68989;52.032;5.152;2023-04-07T08:13:52;8;8;
79537;PMS5003;68989;52.032;5.152;2023-04-07T08:16:19;8;8;
79537;PMS5003;68989;52.032;5.152;2023-04-07T08:18:47;8;8;
79537;PMS5003;68989;52.032;5.152;2023-04-07T08:21:13;6;6;
79537;PMS5003;68989;52.032;5.152;2023-04-07T08:23:40;9;8;
79537;PMS5003;68989;52.032;5.152;2023-04-07T08:26:07;6;6;
79537;PMS5003;68989;52.032;5.152;2023-04-07T08:28:34;6;6;
79537;PMS5003;68989;52.032;5.152;2023-04-07T08:31:01;7;6;
79537;PMS5003;68989;52.032;5.152;2023-04-07T08:33:28;8;6;
79537;PMS5003;68989;52.032;5.152;2023-04-07T08:35:55;9;6;
79537;PMS5003;68989;52.032;5.152;2023-04-07T08:38:22;8;7;
79537;PMS5003;68989;52.032;5.152;2023-04-07T08:40:49;5;5;
79537;PMS5003;68989;52.032;5.152;2023-04-07T08:43:25;7;7;
79537;PMS5003;68989;52.032;5.152;2023-04-07T08:45:55;7;6;
79537;PMS5003;68989;52.032;5.152;2023-04-07T08:48:23;6;6;
79537;PMS5003;68989;52.032;5.152;2023-04-07T08:50:51;5;5;
79537;PMS5003;68989;52.032;5.152;2023-04-07T08:53:21;6;6;
79537;PMS5003;68989;52.032;5.152;2023-04-07T08:55:52;8;6;
79537;PMS5003;68989;52.032;5.152;2023-04-07T08:58:20;7;7;
79537;PMS5003;68989;52.032;5.152;2023-04-07T09:00:47;9;7;
79537;PMS5003;68989;52.032;5.152;2023-04-07T09:03:16;9;9;
79537;PMS5003;68989;52.032;5.152;2023-04-07T09:05:44;11;10;
79537;PMS5003;68989;52.032;5.152;2023-04-07T09:08:11;11;8;
79537;PMS5003;68989;52.032;5.152;2023-04-07T09:10:38;9;9;
79537;PMS5003;68989;52.032;5.152;2023-04-07T09:13:05;9;9;
79537;PMS5003;68989;52.032;5.152;2023-04-07T09:15:32;8;8;
79537;PMS5003;68989;52.032;5.152;2023-04-07T09:17:59;7;7;
79537;PMS5003;68989;52.032;5.152;2023-04-07T09:20:27;8;8;
79537;PMS5003;68989;52.032;5.152;2023-04-07T09:22:54;7;7;
79537;PMS5003;68989;52.032;5.152;2023-04-07T09:25:22;9;9;
79537;PMS5003;68989;52.032;5.152;2023-04-07T09:27:57;6;6;
79537;PMS5003;68989;52.032;5.152;2023-04-07T09:30:25;7;7;
79537;PMS5003;68989;52.032;5.152;2023-04-07T09:32:53;8;7;
79537;PMS5003;68989;52.032;5.152;2023-04-07T09:35:20;6;5;
79537;PMS5003;68989;52.032;5.152;2023-04-07T09:38:00;7;7;
79537;PMS5003;68989;52.032;5.152;2023-04-07T09:40:28;5;5;
79537;PMS5003;68989;52.032;5.152;2023-04-07T09:42:55;6;6;
79537;PMS5003;68989;52.032;5.152;2023-04-07T09:45:23;7;5;
79537;PMS5003;68989;52.032;5.152;2023-04-07T09:47:51;11;8;
79537;PMS5003;68989;52.032;5.152;2023-04-07T09:50:29;4;4;
79537;PMS5003;68989;52.032;5.152;2023-04-07T09:52:59;6;5;
79537;PMS5003;68989;52.032;5.152;2023-04-07T09:55:27;6;6;
79537;PMS5003;68989;52.032;5.152;2023-04-07T09:57:55;5;5;
79537;PMS5003;68989;52.032;5.152;2023-04-07T10:00:22;6;5;
79537;PMS5003;68989;52.032;5.152;2023-04-07T10:02:50;8;5;
79537;PMS5003;68989;52.032;5.152;2023-04-07T10:05:17;6;6;
79537;PMS5003;68989;52.032;5.152;2023-04-07T10:07:44;8;7;
79537;PMS5003;68989;52.032;5.152;2023-04-07T10:10:11;6;6;
79537;PMS5003;68989;52.032;5.152;2023-04-07T10:12:39;8;7;
79537;PMS5003;68989;52.032;5.152;2023-04-07T10:15:08;4;4;
79537;PMS5003;68989;52.032;5.152;2023-04-07T10:17:39;4;4;
79537;PMS5003;68989;52.032;5.152;2023-04-07T10:20:11;7;7;
79537;PMS5003;68989;52.032;5.152;2023-04-07T10:22:39;5;5;
79537;PMS5003;68989;52.032;5.152;2023-04-07T10:25:08;6;6;
79537;PMS5003;68989;52.032;5.152;2023-04-07T10:27:39;5;5;
79537;PMS5003;68989;52.032;5.152;2023-04-07T10:30:12;5;5;
79537;PMS5003;68989;52.032;5.152;2023-04-07T10:32:44;4;4;
79537;PMS5003;68989;52.032;5.152;2023-04-07T10:35:12;4;4;
79537;PMS5003;68989;52.032;5.152;2023-04-07T10:37:39;6;6;
79537;PMS5003;68989;52.032;5.152;2023-04-07T10:40:39;5;5;
79537;PMS5003;68989;52.032;5.152;2023-04-07T10:43:07;5;5;
79537;PMS5003;68989;52.032;5.152;2023-04-07T10:45:51;6;6;
79537;PMS5003;68989;52.032;5.152;2023-04-07T10:48:19;7;7;
79537;PMS5003;68989;52.032;5.152;2023-04-07T10:51:10;6;5;
79537;PMS5003;68989;52.032;5.152;2023-04-07T10:54:13;8;8;
79537;PMS5003;68989;52.032;5.152;2023-04-07T10:57:14;5;5;
79537;PMS5003;68989;52.032;5.152;2023-04-07T11:02:40;5;5;
79537;PMS5003;68989;52.032;5.152;2023-04-07T11:05:07;8;8;
79537;PMS5003;68989;52.032;5.152;2023-04-07T11:07:47;7;5;
79537;PMS5003;68989;52.032;5.152;2023-04-07T11:10:16;6;6;
79537;PMS5003;68989;52.032;5.152;2023-04-07T11:12:44;7;6;
79537;PMS5003;68989;52.032;5.152;2023-04-07T11:15:24;5;5;
79537;PMS5003;68989;52.032;5.152;2023-04-07T11:18:24;8;8;
79537;PMS5003;68989;52.032;5.152;2023-04-07T11:20:52;6;6;
79537;PMS5003;68989;52.032;5.152;2023-04-07T11:23:20;6;6;
79537;PMS5003;68989;52.032;5.152;2023-04-07T11:25:48;6;6;
79537;PMS5003;68989;52.032;5.152;2023-04-07T11:28:17;6;6;
79537;PMS5003;68989;52.032;5.152;2023-04-07T11:30:45;6;6;
79537;PMS5003;68989;52.032;5.152;2023-04-07T11:33:15;5;5;
79537;PMS5003;68989;52.032;5.152;2023-04-07T11:35:46;5;5;
79537;PMS5003;68989;52.032;5.152;2023-04-07T11:38:18;7;6;
79537;PMS5003;68989;52.032;5.152;2023-04-07T11:40:46;8;6;
79537;PMS5003;68989;52.032;5.152;2023-04-07T11:43:15;6;6;
79537;PMS5003;68989;52.032;5.152;2023-04-07T11:45:44;5;5;
79537;PMS5003;68989;52.032;5.152;2023-04-07T11:48:27;6;4;
79537;PMS5003;68989;52.032;5.152;2023-04-07T11:50:56;5;5;
79537;PMS5003;68989;52.032;5.152;2023-04-07T11:53:24;7;6;
79537;PMS5003;68989;52.032;5.152;2023-04-07T11:55:58;10;9;
79537;PMS5003;68989;52.032;5.152;2023-04-07T11:58:25;8;6;
79537;PMS5003;68989;52.032;5.152;2023-04-07T12:00:53;9;8;
79537;PMS5003;68989;52.032;5.152;2023-04-07T12:03:20;6;5;
79537;PMS5003;68989;52.032;5.152;2023-04-07T12:05:47;5;5;
79537;PMS5003;68989;52.032;5.152;2023-04-07T12:08:14;5;4;
79537;PMS5003;68989;52.032;5.152;2023-04-07T12:10:41;7;5;
79537;PMS5003;68989;52.032;5.152;2023-04-07T12:13:08;6;5;
79537;PMS5003;68989;52.032;5.152;2023-04-07T12:15:35;6;6;
79537;PMS5003;68989;52.032;5.152;2023-04-07T12:18:02;9;8;
79537;PMS5003;68989;52.032;5.152;2023-04-07T12:20:29;7;7;
79537;PMS5003;68989;52.032;5.152;2023-04-07T12:22:56;8;8;
79537;PMS5003;68989;52.032;5.152;2023-04-07T12:25:23;6;6;
79537;PMS5003;68989;52.032;5.152;2023-04-07T12:27:50;8;7;
79537;PMS5003;68989;52.032;5.152;2023-04-07T12:30:16;8;7;
79537;PMS5003;68989;52.032;5.152;2023-04-07T12:32:44;8;6;
79537;PMS5003;68989;52.032;5.152;2023-04-07T12:35:10;7;7;
79537;PMS5003;68989;52.032;5.152;2023-04-07T12:37:38;7;7;
79537;PMS5003;68989;52.032;5.152;2023-04-07T12:40:05;9;9;
79537;PMS5003;68989;52.032;5.152;2023-04-07T12:42:34;9;9;
79537;PMS5003;68989;52.032;5.152;2023-04-07T12:45:01;8;7;
79537;PMS5003;68989;52.032;5.152;2023-04-07T12:47:29;8;7;
79537;PMS5003;68989;52.032;5.152;2023-04-07T12:49:56;8;7;
79537;PMS5003;68989;52.032;5.152;2023-04-07T12:52:22;9;7;
79537;PMS5003;68989;52.032;5.152;2023-04-07T12:54:50;8;8;
79537;PMS5003;68989;52.032;5.152;2023-04-07T12:57:16;8;8;
79537;PMS5003;68989;52.032;5.152;2023-04-07T12:59:43;9;7;
79537;PMS5003;68989;52.032;5.152;2023-04-07T13:02:10;10;8;
79537;PMS5003;68989;52.032;5.152;2023-04-07T13:04:37;11;8;
79537;PMS5003;68989;52.032;5.152;2023-04-07T13:07:04;7;7;
79537;PMS5003;68989;52.032;5.152;2023-04-07T13:09:31;7;7;
79537;PMS5003;68989;52.032;5.152;2023-04-07T13:11:58;7;5;
79537;PMS5003;68989;52.032;5.152;2023-04-07T13:14:25;7;7;
79537;PMS5003;68989;52.032;5.152;2023-04-07T13:16:52;8;6;
79537;PMS5003;68989;52.032;5.152;2023-04-07T13:19:19;8;8;
79537;PMS5003;68989;52.032;5.152;2023-04-07T13:21:45;6;6;
79537;PMS5003;68989;52.032;5.152;2023-04-07T13:24:12;9;8;
79537;PMS5003;68989;52.032;5.152;2023-04-07T13:26:40;8;8;
79537;PMS5003;68989;52.032;5.152;2023-04-07T13:29:07;6;6;
79537;PMS5003;68989;52.032;5.152;2023-04-07T13:31:33;12;11;
79537;PMS5003;68989;52.032;5.152;2023-04-07T13:34:00;7;5;
79537;PMS5003;68989;52.032;5.152;2023-04-07T13:36:27;9;8;
79537;PMS5003;68989;52.032;5.152;2023-04-07T13:38:54;9;7;
79537;PMS5003;68989;52.032;5.152;2023-04-07T13:41:21;10;8;
79537;PMS5003;68989;52.032;5.152;2023-04-07T13:43:48;11;10;
79537;PMS5003;68989;52.032;5.152;2023-04-07T13:46:15;5;5;
79537;PMS5003;68989;52.032;5.152;2023-04-07T13:48:42;9;8;
79537;PMS5003;68989;52.032;5.152;2023-04-07T13:51:09;10;8;
79537;PMS5003;68989;52.032;5.152;2023-04-07T13:53:36;11;9;
79537;PMS5003;68989;52.032;5.152;2023-04-07T13:56:03;8;8;
79537;PMS5003;68989;52.032;5.152;2023-04-07T13:58:30;11;10;
79537;PMS5003;68989;52.032;5.152;2023-04-07T14:00:57;7;7;
79537;PMS5003;68989;52.032;5.152;2023-04-07T14:03:24;10;10;
79537;PMS5003;68989;52.032;5.152;2023-04-07T14:05:51;10;8;
79537;PMS5003;68989;52.032;5.152;2023-04-07T14:08:18;8;8;
79537;PMS5003;68989;52.032;5.152;2023-04-07T14:10:46;10;10;
79537;PMS5003;68989;52.032;5.152;2023-04-07T14:13:13;8;8;
79537;PMS5003;68989;52.032;5.152;2023-04-07T14:15:40;9;8;
79537;PMS5003;68989;52.032;5.152;2023-04-07T14:18:08;12;10;
79537;PMS5003;68989;52.032;5.152;2023-04-07T14:20:35;11;11;
79537;PMS5003;68989;52.032;5.152;2023-04-07T14:23:02;10;10;
79537;PMS5003;68989;52.032;5.152;2023-04-07T14:25:30;7;7;
79537;PMS5003;68989;52.032;5.152;2023-04-07T14:27:59;10;7;
79537;PMS5003;68989;52.032;5.152;2023-04-07T14:30:25;9;9;
79537;PMS5003;68989;52.032;5.152;2023-04-07T14:32:52;10;9;
79537;PMS5003;68989;52.032;5.152;2023-04-07T14:35:20;12;10;
79537;PMS5003;68989;52.032;5.152;2023-04-07T14:37:47;11;9;
79537;PMS5003;68989;52.032;5.152;2023-04-07T14:40:14;9;9;
79537;PMS5003;68989;52.032;5.152;2023-04-07T14:42:41;6;6;
79537;PMS5003;68989;52.032;5.152;2023-04-07T14:45:08;8;8;
79537;PMS5003;68989;52.032;5.152;2023-04-07T14:47:36;8;7;
79537;PMS5003;68989;52.032;5.152;2023-04-07T14:50:03;6;6;
79537;PMS5003;68989;52.032;5.152;2023-04-07T14:52:30;6;6;
79537;PMS5003;68989;52.032;5.152;2023-04-07T14:54:57;7;7;
79537;PMS5003;68989;52.032;5.152;2023-04-07T14:57:24;7;7;
79537;PMS5003;68989;52.032;5.152;2023-04-07T14:59:52;8;8;
79537;PMS5003;68989;52.032;5.152;2023-04-07T15:02:18;7;7;
79537;PMS5003;68989;52.032;5.152;2023-04-07T15:04:45;7;7;
79537;PMS5003;68989;52.032;5.152;2023-04-07T15:07:13;10;10;
79537;PMS5003;68989;52.032;5.152;2023-04-07T15:09:40;10;8;
79537;PMS5003;68989;52.032;5.152;2023-04-07T15:12:07;10;10;
79537;PMS5003;68989;52.032;5.152;2023-04-07T15:14:33;10;10;
79537;PMS5003;68989;52.032;5.152;2023-04-07T15:17:01;10;8;
79537;PMS5003;68989;52.032;5.152;2023-04-07T15:19:28;9;9;
79537;PMS5003;68989;52.032;5.152;2023-04-07T15:21:55;10;8;
79537;PMS5003;68989;52.032;5.152;2023-04-07T15:24:22;11;9;
79537;PMS5003;68989;52.032;5.152;2023-04-07T15:26:49;10;10;
79537;PMS5003;68989;52.032;5.152;2023-04-07T15:29:16;8;8;
79537;PMS5003;68989;52.032;5.152;2023-04-07T15:31:43;9;9;
79537;PMS5003;68989;52.032;5.152;2023-04-07T15:34:10;11;9;
79537;PMS5003;68989;52.032;5.152;2023-04-07T15:36:37;10;10;
79537;PMS5003;68989;52.032;5.152;2023-04-07T15:39:05;9;9;
79537;PMS5003;68989;52.032;5.152;2023-04-07T15:41:32;9;9;
79537;PMS5003;68989;52.032;5.152;2023-04-07T15:44:00;11;9;
79537;PMS5003;68989;52.032;5.152;2023-04-07T15:46:28;11;9;
79537;PMS5003;68989;52.032;5.152;2023-04-07T15:48:55;13;11;
79537;PMS5003;68989;52.032;5.152;2023-04-07T15:51:23;11;11;
79537;PMS5003;68989;52.032;5.152;2023-04-07T15:53:50;13;13;
79537;PMS5003;68989;52.032;5.152;2023-04-07T15:56:16;11;11;
79537;PMS5003;68989;52.032;5.152;2023-04-07T15:58:43;8;8;
79537;PMS5003;68989;52.032;5.152;2023-04-07T16:01:10;11;10;
79537;PMS5003;68989;52.032;5.152;2023-04-07T16:03:38;10;10;
79537;PMS5003;68989;52.032;5.152;2023-04-07T16:06:05;11;11;
79537;PMS5003;68989;52.032;5.152;2023-04-07T16:08:32;16;15;
79537;PMS5003;68989;52.032;5.152;2023-04-07T16:10:59;17;15;
79537;PMS5003;68989;52.032;5.152;2023-04-07T16:13:26;13;11;
79537;PMS5003;68989;52.032;5.152;2023-04-07T16:15:54;15;13;
79537;PMS5003;68989;52.032;5.152;2023-04-07T16:18:22;14;14;
79537;PMS5003;68989;52.032;5.152;2023-04-07T16:20:49;13;12;
79537;PMS5003;68989;52.032;5.152;2023-04-07T16:23:16;17;14;
79537;PMS5003;68989;52.032;5.152;2023-04-07T16:25:43;11;11;
79537;PMS5003;68989;52.032;5.152;2023-04-07T16:28:10;13;13;
79537;PMS5003;68989;52.032;5.152;2023-04-07T16:30:37;13;13;
79537;PMS5003;68989;52.032;5.152;2023-04-07T16:33:04;14;14;
79537;PMS5003;68989;52.032;5.152;2023-04-07T16:35:32;14;14;
79537;PMS5003;68989;52.032;5.152;2023-04-07T16:37:59;16;16;
79537;PMS5003;68989;52.032;5.152;2023-04-07T16:40:26;15;13;
79537;PMS5003;68989;52.032;5.152;2023-04-07T16:42:53;15;15;
79537;PMS5003;68989;52.032;5.152;2023-04-07T16:45:20;21;19;
79537;PMS5003;68989;52.032;5.152;2023-04-07T16:47:48;21;19;
79537;PMS5003;68989;52.032;5.152;2023-04-07T16:50:14;16;16;